Time;durP1;ratioP1;P1;durP2;ratioP2;P2;SDS_P1;SDS_P2;PMS_P1;PMS_P2;Temp;Humidity;BMP_temperature;BMP_pressure;BME280_temperature;BME280_humidity;BME280_pressure;Samples;Min_cycle;Max_cycle;Signal;HPM_P1;HPM_P2
2023/05/06 00:01:55;;;;;;;;;;;18.40;65.20;;;;;;5050662;28;869;-70
2023/05/06 00:04:20;;;;;;;;;;;18.40;65.20;;;;;;5051491;28;1344;-70
2023/05/06 00:06:47;;;;;;;;;;;18.40;65.30;;;;;;5051759;28;910;-70
2023/05/06 00:09:13;;;;;;;;;;;18.40;65.30;;;;;;5048084;28;1959;-70
2023/05/06 00:11:38;;;;;;;;;;;18.40;65.30;;;;;;5051680;28;1062;-70
2023/05/06 00:14:04;;;;;;;;;;;18.40;65.30;;;;;;5051038;28;1276;-70
2023/05/06 00:16:29;;;;;;;;;;;18.40;65.30;;;;;;5044817;28;867;-70
2023/05/06 00:18:55;;;;;;;;;;;18.40;65.30;;;;;;5083795;28;880;-70
2023/05/06 00:21:20;;;;;;;;;;;18.40;65.30;;;;;;5051465;28;812;-71
2023/05/06 00:23:46;;;;;;;;;;;18.40;65.30;;;;;;5051171;28;1345;-70
2023/05/06 00:26:11;;;;;;;;;;;18.40;65.30;;;;;;5051329;28;1300;-70
2023/05/06 00:28:37;;;;;;;;;;;18.40;65.40;;;;;;5051043;28;810;-71
2023/05/06 00:31:02;;;;;;;;;;;18.40;65.40;;;;;;5042710;28;1997;-70
2023/05/06 00:33:28;;;;;;;;;;;18.40;65.40;;;;;;5050563;28;1543;-71
2023/05/06 00:35:53;;;;;;;;;;;18.40;65.30;;;;;;5051006;28;1284;-70
2023/05/06 00:38:18;;;;;;;;;;;18.40;65.40;;;;;;5050982;28;926;-70
2023/05/06 00:40:44;;;;;;;;;;;18.40;65.40;;;;;;5051193;28;1050;-70
2023/05/06 00:43:10;;;;;;;;;;;18.40;65.40;;;;;;5083197;28;853;-70
2023/05/06 00:45:35;;;;;;;;;;;18.40;65.40;;;;;;5049590;28;1259;-70
2023/05/06 00:48:00;;;;;;;;;;;18.40;65.40;;;;;;5050895;28;903;-70
2023/05/06 00:50:31;;;;;;;;;;;18.40;65.40;;;;;;5050742;28;1901;-70
2023/05/06 00:52:57;;;;;;;;;;;18.40;65.40;;;;;;5049460;28;1894;-70
2023/05/06 00:55:23;;;;;;;;;;;18.40;65.40;;;;;;5050034;28;1374;-70
2023/05/06 00:57:49;;;;;;;;;;;18.40;65.50;;;;;;5082824;28;873;-71
2023/05/06 01:00:15;;;;;;;;;;;18.40;65.40;;;;;;5050848;28;796;-70
2023/05/06 01:02:40;;;;;;;;;;;18.30;65.40;;;;;;5051113;28;871;-70
2023/05/06 01:05:06;;;;;;;;;;;18.40;65.40;;;;;;5050314;28;1253;-70
2023/05/06 01:07:32;;;;;;;;;;;18.30;65.40;;;;;;5050745;28;860;-70
2023/05/06 01:10:03;;;;;;;;;;;18.40;65.50;;;;;;5050496;28;1910;-70
2023/05/06 01:12:33;;;;;;;;;;;18.40;65.50;;;;;;5050182;28;884;-70
2023/05/06 01:15:00;;;;;;;;;;;18.30;65.40;;;;;;5043975;28;1382;-71
2023/05/06 01:17:26;;;;;;;;;;;18.30;65.40;;;;;;5082524;28;811;-70
2023/05/06 01:19:52;;;;;;;;;;;18.30;65.40;;;;;;5050590;28;907;-71
2023/05/06 01:22:17;;;;;;;;;;;18.40;65.50;;;;;;5083317;28;1381;-70
2023/05/06 01:24:43;;;;;;;;;;;18.30;65.40;;;;;;5083060;28;1280;-70
2023/05/06 01:27:09;;;;;;;;;;;18.40;65.50;;;;;;5032291;28;1210;-70
2023/05/06 01:29:35;;;;;;;;;;;18.30;65.40;;;;;;5082312;28;1969;-70
2023/05/06 01:32:20;;;;;;;;;;;18.30;65.50;;;;;;5032392;28;1174;-70
2023/05/06 01:34:52;;;;;;;;;;;18.30;65.50;;;;;;5049282;28;1283;-70
2023/05/06 01:37:40;;;;;;;;;;;18.30;66.20;;;;;;5049940;28;994;-70
2023/05/06 01:40:06;;;;;;;;;;;18.30;65.50;;;;;;5048964;28;1182;-70
2023/05/06 01:42:32;;;;;;;;;;;18.30;65.50;;;;;;5081617;28;927;-71
2023/05/06 01:44:57;;;;;;;;;;;18.30;65.50;;;;;;5081697;28;1347;-71
2023/05/06 01:47:23;;;;;;;;;;;18.30;65.60;;;;;;5048691;28;1775;-71
2023/05/06 01:49:48;;;;;;;;;;;18.30;65.50;;;;;;5051667;28;1902;-71
2023/05/06 01:52:14;;;;;;;;;;;18.30;65.50;;;;;;5053746;28;872;-71
2023/05/06 01:54:40;;;;;;;;;;;18.30;65.60;;;;;;5047119;28;1391;-70
2023/05/06 01:57:05;;;;;;;;;;;18.30;65.60;;;;;;5054133;28;867;-70
2023/05/06 01:59:30;;;;;;;;;;;18.30;65.60;;;;;;5053911;28;1037;-71
2023/05/06 02:01:56;;;;;;;;;;;18.30;65.60;;;;;;5054065;28;844;-71
2023/05/06 02:04:21;;;;;;;;;;;18.30;65.60;;;;;;5053651;28;1351;-71
2023/05/06 02:06:47;;;;;;;;;;;18.30;65.70;;;;;;5053737;28;946;-71
2023/05/06 02:09:12;;;;;;;;;;;18.30;65.60;;;;;;5053992;28;1897;-70
2023/05/06 02:11:38;;;;;;;;;;;18.30;65.60;;;;;;5053804;28;820;-71
2023/05/06 02:14:03;;;;;;;;;;;18.30;65.60;;;;;;5053559;28;1342;-70
2023/05/06 02:16:29;;;;;;;;;;;18.30;65.60;;;;;;5053717;28;1266;-70
2023/05/06 02:18:54;;;;;;;;;;;18.30;65.60;;;;;;5053717;28;839;-71
2023/05/06 02:21:20;;;;;;;;;;;18.30;65.60;;;;;;5086038;28;934;-71
2023/05/06 02:23:45;;;;;;;;;;;18.30;65.60;;;;;;5053426;28;1266;-71
2023/05/06 02:26:11;;;;;;;;;;;18.30;65.60;;;;;;5053489;28;1350;-71
2023/05/06 02:28:36;;;;;;;;;;;18.30;65.70;;;;;;5053574;28;879;-71
2023/05/06 02:31:01;;;;;;;;;;;18.30;65.60;;;;;;5053394;28;1952;-70
2023/05/06 02:33:27;;;;;;;;;;;18.30;65.60;;;;;;5054505;28;1001;-70
2023/05/06 02:35:52;;;;;;;;;;;18.30;66.40;;;;;;5053276;28;1259;-70
2023/05/06 02:38:18;;;;;;;;;;;18.30;65.70;;;;;;5053614;28;863;-71
2023/05/06 02:40:43;;;;;;;;;;;18.30;65.70;;;;;;5053601;28;859;-71
2023/05/06 02:43:09;;;;;;;;;;;18.30;65.70;;;;;;5052124;28;883;-71
2023/05/06 02:45:34;;;;;;;;;;;18.30;65.70;;;;;;5053000;28;1394;-70
2023/05/06 02:48:00;;;;;;;;;;;18.30;65.70;;;;;;5053378;28;895;-70
2023/05/06 02:50:25;;;;;;;;;;;18.30;65.70;;;;;;5053135;28;1878;-71
2023/05/06 02:52:51;;;;;;;;;;;18.30;65.70;;;;;;5053332;28;807;-70
2023/05/06 02:55:17;;;;;;;;;;;18.30;65.70;;;;;;5052722;28;1276;-71
2023/05/06 02:57:43;;;;;;;;;;;18.30;65.70;;;;;;5053136;28;844;-71
2023/05/06 03:00:09;;;;;;;;;;;18.30;65.70;;;;;;5051287;28;784;-70
2023/05/06 03:02:35;;;;;;;;;;;18.30;65.70;;;;;;5053035;28;801;-70
2023/05/06 03:05:03;;;;;;;;;;;18.30;65.70;;;;;;5052615;28;1251;-70
2023/05/06 03:07:29;;;;;;;;;;;18.30;65.70;;;;;;5052320;28;1051;-70
2023/05/06 03:09:54;;;;;;;;;;;18.30;65.70;;;;;;5053568;28;1973;-71
2023/05/06 03:12:20;;;;;;;;;;;18.30;65.70;;;;;;5053919;28;840;-71
2023/05/06 03:14:45;;;;;;;;;;;18.30;65.70;;;;;;5084979;28;1364;-70
2023/05/06 03:17:11;;;;;;;;;;;18.30;65.80;;;;;;5052605;28;895;-70
2023/05/06 03:19:36;;;;;;;;;;;18.30;65.80;;;;;;5052353;28;963;-70
2023/05/06 03:22:02;;;;;;;;;;;18.30;66.10;;;;;;5052522;28;1367;-70
2023/05/06 03:24:27;;;;;;;;;;;18.30;65.80;;;;;;5052309;28;1385;-70
2023/05/06 03:26:53;;;;;;;;;;;18.30;65.80;;;;;;5052451;28;998;-70
2023/05/06 03:29:18;;;;;;;;;;;18.30;65.80;;;;;;5052415;28;1907;-70
2023/05/06 03:31:44;;;;;;;;;;;18.30;65.80;;;;;;5050605;28;1017;-71
2023/05/06 03:34:09;;;;;;;;;;;18.30;66.60;;;;;;5052998;28;1433;-70
2023/05/06 03:36:34;;;;;;;;;;;18.30;65.80;;;;;;5052286;28;884;-70
2023/05/06 03:39:00;;;;;;;;;;;18.30;65.80;;;;;;5052371;28;930;-71
2023/05/06 03:41:26;;;;;;;;;;;18.30;65.80;;;;;;5052258;28;853;-71
2023/05/06 03:43:52;;;;;;;;;;;18.30;65.80;;;;;;5051996;28;842;-71
2023/05/06 03:46:18;;;;;;;;;;;18.30;65.80;;;;;;5051765;28;1185;-71
2023/05/06 03:48:43;;;;;;;;;;;18.30;65.80;;;;;;5051842;28;883;-70
2023/05/06 03:51:09;;;;;;;;;;;18.30;65.90;;;;;;5051577;28;1951;-71
2023/05/06 03:53:34;;;;;;;;;;;18.30;65.90;;;;;;5083514;28;879;-70
2023/05/06 03:56:00;;;;;;;;;;;18.30;65.90;;;;;;5084253;28;1246;-71
2023/05/06 03:58:26;;;;;;;;;;;18.30;65.90;;;;;;5051730;28;847;-70
2023/05/06 04:00:51;;;;;;;;;;;18.30;65.90;;;;;;5051142;28;782;-71
2023/05/06 04:03:17;;;;;;;;;;;18.30;65.90;;;;;;5050832;28;878;-71
2023/05/06 04:05:43;;;;;;;;;;;18.30;65.90;;;;;;5050449;28;1276;-71
2023/05/06 04:08:08;;;;;;;;;;;18.30;65.90;;;;;;5051251;28;800;-71
2023/05/06 04:10:40;;;;;;;;;;;18.30;65.80;;;;;;5051166;28;1914;-71
2023/05/06 04:13:05;;;;;;;;;;;18.30;65.80;;;;;;5051102;28;801;-70
2023/05/06 04:15:33;;;;;;;;;;;18.30;65.70;;;;;;5051208;28;1315;-70
2023/05/06 04:17:59;;;;;;;;;;;18.30;65.70;;;;;;5050801;28;695;-70
2023/05/06 04:20:24;;;;;;;;;;;18.40;65.60;;;;;;5051495;28;1022;-70
2023/05/06 04:22:49;;;;;;;;;;;18.40;65.50;;;;;;5051243;28;976;-70
2023/05/06 04:25:17;;;;;;;;;;;18.40;65.30;;;;;;5050785;28;1369;-71
2023/05/06 04:27:42;;;;;;;;;;;18.50;65.30;;;;;;5051125;28;867;-70
2023/05/06 04:30:08;;;;;;;;;;;18.50;65.20;;;;;;5082687;28;1889;-70
2023/05/06 04:32:33;;;;;;;;;;;18.50;65.10;;;;;;5051266;28;854;-70
2023/05/06 04:34:59;;;;;;;;;;;18.60;65.00;;;;;;5051051;28;1272;-70
2023/05/06 04:37:27;;;;;;;;;;;18.60;64.90;;;;;;5050977;28;836;-71
2023/05/06 04:39:53;;;;;;;;;;;18.60;64.80;;;;;;5050738;28;922;-71
2023/05/06 04:42:18;;;;;;;;;;;18.70;64.60;;;;;;5051039;28;1151;-70
2023/05/06 04:44:44;;;;;;;;;;;18.80;64.50;;;;;;5050532;28;1272;-70
2023/05/06 04:47:09;;;;;;;;;;;18.80;64.40;;;;;;5050986;28;985;-70
2023/05/06 04:49:35;;;;;;;;;;;18.90;64.20;;;;;;5050889;28;1898;-70
2023/05/06 04:52:00;;;;;;;;;;;19.00;64.00;;;;;;5050777;28;828;-71
2023/05/06 04:54:26;;;;;;;;;;;19.20;63.80;;;;;;5050694;28;1318;-71
2023/05/06 04:56:51;;;;;;;;;;;19.30;63.50;;;;;;5051108;28;930;-71
2023/05/06 04:59:17;;;;;;;;;;;19.40;63.20;;;;;;5084099;28;1436;-71
2023/05/06 05:01:42;;;;;;;;;;;19.50;62.90;;;;;;5051496;28;895;-71
2023/05/06 05:04:08;;;;;;;;;;;19.60;62.60;;;;;;5050409;28;1381;-70
2023/05/06 05:06:33;;;;;;;;;;;19.70;62.30;;;;;;5050510;28;957;-70
2023/05/06 05:08:59;;;;;;;;;;;19.80;62.00;;;;;;5050611;28;1965;-70
2023/05/06 05:11:24;;;;;;;;;;;19.90;61.80;;;;;;5050475;28;816;-71
2023/05/06 05:13:50;;;;;;;;;;;20.00;61.50;;;;;;5050271;28;1054;-70
2023/05/06 05:16:15;;;;;;;;;;;20.00;61.30;;;;;;5050438;28;1284;-70
2023/05/06 05:18:41;;;;;;;;;;;20.10;61.10;;;;;;5050396;28;855;-71
2023/05/06 05:21:06;;;;;;;;;;;20.20;60.90;;;;;;5050493;28;804;-70
2023/05/06 05:23:31;;;;;;;;;;;20.20;60.70;;;;;;5049395;28;873;-71
2023/05/06 05:25:57;;;;;;;;;;;20.30;60.50;;;;;;5050115;28;1264;-70
2023/05/06 05:28:22;;;;;;;;;;;20.30;60.30;;;;;;5050316;28;1022;-71
2023/05/06 05:30:48;;;;;;;;;;;20.40;60.20;;;;;;5046192;28;1953;-70
2023/05/06 05:33:13;;;;;;;;;;;20.40;60.10;;;;;;5050852;28;1434;-70
2023/05/06 05:35:39;;;;;;;;;;;20.40;60.00;;;;;;5050571;28;1355;-70
2023/05/06 05:38:04;;;;;;;;;;;20.40;59.90;;;;;;5082656;28;883;-71
2023/05/06 05:40:30;;;;;;;;;;;20.50;59.90;;;;;;5050135;28;1579;-71
2023/05/06 05:42:55;;;;;;;;;;;20.50;59.80;;;;;;5048895;28;1457;-70
2023/05/06 05:45:21;;;;;;;;;;;20.60;59.80;;;;;;5049670;28;1389;-70
2023/05/06 05:47:46;;;;;;;;;;;20.50;59.70;;;;;;5050129;28;816;-70
2023/05/06 05:50:12;;;;;;;;;;;20.60;59.70;;;;;;5050220;28;1906;-70
2023/05/06 05:52:37;;;;;;;;;;;20.60;59.60;;;;;;5050139;28;1059;-70
2023/05/06 05:55:03;;;;;;;;;;;20.60;59.60;;;;;;5049687;28;1244;-70
2023/05/06 05:57:28;;;;;;;;;;;20.70;59.60;;;;;;5049977;28;819;-71
2023/05/06 05:59:53;;;;;;;;;;;20.70;59.50;;;;;;5049925;28;853;-71
2023/05/06 06:02:19;;;;;;;;;;;20.70;59.50;;;;;;5049892;28;922;-71
2023/05/06 06:04:44;;;;;;;;;;;20.70;59.50;;;;;;5049635;28;1257;-71
2023/05/06 06:07:10;;;;;;;;;;;20.70;59.50;;;;;;5049821;28;1049;-71
2023/05/06 06:09:35;;;;;;;;;;;20.70;59.50;;;;;;5050246;28;1906;-70
2023/05/06 06:12:01;;;;;;;;;;;20.70;59.50;;;;;;5048736;28;1592;-71
2023/05/06 06:14:26;;;;;;;;;;;20.70;59.50;;;;;;5049630;28;1381;-70
2023/05/06 06:16:52;;;;;;;;;;;20.70;59.50;;;;;;5050095;28;816;-70
2023/05/06 06:19:17;;;;;;;;;;;20.80;59.50;;;;;;5082213;28;961;-71
2023/05/06 06:21:43;;;;;;;;;;;20.80;59.50;;;;;;5049725;28;1033;-71
2023/05/06 06:24:08;;;;;;;;;;;20.70;59.50;;;;;;5049471;28;1295;-70
2023/05/06 06:26:34;;;;;;;;;;;20.70;59.50;;;;;;5049787;28;917;-70
2023/05/06 06:28:59;;;;;;;;;;;20.70;59.50;;;;;;5049869;28;745;-70
2023/05/06 06:31:25;;;;;;;;;;;20.70;59.50;;;;;;5049794;28;826;-71
2023/05/06 06:33:50;;;;;;;;;;;20.80;59.60;;;;;;5050244;28;1451;-71
2023/05/06 06:36:16;;;;;;;;;;;20.70;59.60;;;;;;5052535;28;1362;-70
2023/05/06 06:38:41;;;;;;;;;;;20.80;59.70;;;;;;5053852;28;945;-70
2023/05/06 06:41:07;;;;;;;;;;;20.70;59.70;;;;;;5053261;28;938;-70
2023/05/06 06:43:32;;;;;;;;;;;20.70;59.70;;;;;;5053202;28;814;-71
2023/05/06 06:45:58;;;;;;;;;;;20.70;59.70;;;;;;5050680;28;1379;-69
2023/05/06 06:48:23;;;;;;;;;;;20.70;59.70;;;;;;5051510;28;2190;-69
2023/05/06 06:50:49;;;;;;;;;;;20.70;59.80;;;;;;5053873;28;1906;-68
2023/05/06 06:53:16;;;;;;;;;;;20.70;59.80;;;;;;5052528;28;1524;-68
2023/05/06 06:55:42;;;;;;;;;;;20.70;59.80;;;;;;5084962;28;1252;-68
2023/05/06 06:58:07;;;;;;;;;;;20.70;59.90;;;;;;5085224;28;1002;-70
2023/05/06 07:00:32;;;;;;;;;;;20.70;59.90;;;;;;5052614;28;1348;-69
2023/05/06 07:02:58;;;;;;;;;;;20.70;59.90;;;;;;5051914;28;1939;-70
2023/05/06 07:05:25;;;;;;;;;;;20.70;60.30;;;;;;5051268;28;3041;-70
2023/05/06 07:07:51;;;;;;;;;;;20.70;61.10;;;;;;5051139;28;1391;-71
2023/05/06 07:10:16;;;;;;;;;;;20.70;61.50;;;;;;5052813;28;1942;-70
2023/05/06 07:12:42;;;;;;;;;;;20.70;61.80;;;;;;5046565;28;1362;-70
2023/05/06 07:15:07;;;;;;;;;;;20.70;61.70;;;;;;5052580;28;1362;-69
2023/05/06 07:17:33;;;;;;;;;;;20.70;62.00;;;;;;5052652;28;820;-70
2023/05/06 07:19:59;;;;;;;;;;;20.70;62.10;;;;;;5052708;28;891;-70
2023/05/06 07:22:25;;;;;;;;;;;20.60;62.00;;;;;;5052490;28;1363;-70
2023/05/06 07:24:50;;;;;;;;;;;20.60;62.20;;;;;;5052109;28;1277;-70
2023/05/06 07:27:16;;;;;;;;;;;20.60;62.40;;;;;;5052506;28;946;-69
2023/05/06 07:29:41;;;;;;;;;;;20.60;62.80;;;;;;5052543;28;1894;-70
2023/05/06 07:32:07;;;;;;;;;;;20.50;62.90;;;;;;5052567;28;923;-70
2023/05/06 07:34:33;;;;;;;;;;;20.50;63.20;;;;;;5052797;28;1341;-69
2023/05/06 07:36:59;;;;;;;;;;;20.60;63.50;;;;;;5051777;28;852;-70
2023/05/06 07:39:24;;;;;;;;;;;20.50;63.80;;;;;;5050687;28;885;-69
2023/05/06 07:41:50;;;;;;;;;;;20.50;64.20;;;;;;5084160;28;896;-69
2023/05/06 07:44:15;;;;;;;;;;;20.50;65.60;;;;;;5050356;28;1881;-69
2023/05/06 07:46:41;;;;;;;;;;;20.50;64.90;;;;;;5050486;28;1506;-69
2023/05/06 07:49:06;;;;;;;;;;;20.50;64.70;;;;;;5051569;28;1924;-69
2023/05/06 07:51:32;;;;;;;;;;;20.50;64.80;;;;;;5052656;28;1169;-71
2023/05/06 07:53:57;;;;;;;;;;;20.50;65.20;;;;;;5049193;28;1450;-70
2023/05/06 07:56:23;;;;;;;;;;;20.40;65.90;;;;;;5084149;28;1422;-69
2023/05/06 07:58:48;;;;;;;;;;;20.50;65.80;;;;;;5045870;28;1360;-70
2023/05/06 08:01:14;;;;;;;;;;;20.40;66.00;;;;;;5051662;28;888;-70
2023/05/06 08:03:40;;;;;;;;;;;20.40;65.80;;;;;;5051400;28;906;-70
2023/05/06 08:06:05;;;;;;;;;;;20.40;66.10;;;;;;5050629;28;1285;-70
2023/05/06 08:08:31;;;;;;;;;;;20.40;66.20;;;;;;5050433;28;839;-70
2023/05/06 08:10:56;;;;;;;;;;;20.40;66.00;;;;;;5051484;28;1981;-70
2023/05/06 08:13:22;;;;;;;;;;;20.40;66.00;;;;;;5050117;28;994;-69
2023/05/06 08:15:48;;;;;;;;;;;20.40;65.90;;;;;;5033617;28;1367;-70
2023/05/06 08:18:13;;;;;;;;;;;20.40;66.00;;;;;;5051385;28;986;-70
2023/05/06 08:20:38;;;;;;;;;;;20.40;66.20;;;;;;5051258;28;834;-70
2023/05/06 08:23:04;;;;;;;;;;;20.40;66.30;;;;;;5051144;28;1368;-68
2023/05/06 08:25:29;;;;;;;;;;;20.40;66.50;;;;;;5050843;28;1283;-70
2023/05/06 08:27:55;;;;;;;;;;;20.40;66.30;;;;;;5051291;28;1283;-70
2023/05/06 08:30:20;;;;;;;;;;;20.50;66.30;;;;;;5051147;28;1906;-70
2023/05/06 08:32:46;;;;;;;;;;;20.50;66.20;;;;;;5051603;28;1454;-70
2023/05/06 08:35:12;;;;;;;;;;;20.50;66.10;;;;;;5051682;28;1416;-70
2023/05/06 08:37:37;;;;;;;;;;;20.50;66.10;;;;;;5052506;28;868;-70
2023/05/06 08:40:04;;;;;;;;;;;20.50;66.30;;;;;;5052631;28;1009;-70
2023/05/06 08:42:29;;;;;;;;;;;20.40;66.30;;;;;;5050855;28;864;-70
2023/05/06 08:44:55;;;;;;;;;;;20.40;66.60;;;;;;5050578;28;1280;-70
2023/05/06 08:47:21;;;;;;;;;;;20.40;66.60;;;;;;5083123;28;863;-70
2023/05/06 08:49:46;;;;;;;;;;;20.40;66.60;;;;;;5050903;28;1910;-70
2023/05/06 08:52:12;;;;;;;;;;;20.40;66.60;;;;;;5049438;28;848;-70
2023/05/06 08:54:37;;;;;;;;;;;20.30;66.50;;;;;;5050495;28;1378;-70
2023/05/06 08:57:04;;;;;;;;;;;20.30;66.50;;;;;;5050537;28;947;-70
2023/05/06 08:59:31;;;;;;;;;;;20.30;66.50;;;;;;5082640;28;903;-69
2023/05/06 09:01:58;;;;;;;;;;;20.30;66.60;;;;;;5050419;28;828;-70
2023/05/06 09:04:24;;;;;;;;;;;20.20;66.60;;;;;;5050206;28;1267;-70
2023/05/06 09:06:49;;;;;;;;;;;20.20;66.60;;;;;;5082684;28;982;-70
2023/05/06 09:09:15;;;;;;;;;;;20.20;66.80;;;;;;5050408;28;1995;-70
2023/05/06 09:11:40;;;;;;;;;;;20.20;66.80;;;;;;5050407;28;784;-69
2023/05/06 09:14:10;;;;;;;;;;;20.20;66.90;;;;;;5045617;28;1679;-70
2023/05/06 09:16:35;;;;;;;;;;;20.20;67.10;;;;;;5044822;28;861;-70
2023/05/06 09:19:01;;;;;;;;;;;20.20;67.50;;;;;;5050369;28;794;-69
2023/05/06 09:21:33;;;;;;;;;;;20.20;67.70;;;;;;5049012;28;857;-70
2023/05/06 09:23:59;;;;;;;;;;;20.20;68.00;;;;;;5082179;28;1279;-70
2023/05/06 09:26:25;;;;;;;;;;;20.20;68.30;;;;;;5082607;28;1239;-70
2023/05/06 09:28:50;;;;;;;;;;;20.20;68.60;;;;;;5050330;28;848;-70
2023/05/06 09:31:16;;;;;;;;;;;20.20;68.70;;;;;;5050233;28;1894;-70
2023/05/06 09:33:41;;;;;;;;;;;20.10;68.80;;;;;;5050270;28;989;-70
2023/05/06 09:36:09;;;;;;;;;;;20.20;69.10;;;;;;5050157;28;1349;-70
2023/05/06 09:38:35;;;;;;;;;;;20.10;69.00;;;;;;5048577;28;1483;-70
2023/05/06 09:41:00;;;;;;;;;;;20.10;69.00;;;;;;5050323;28;896;-70
2023/05/06 09:43:25;;;;;;;;;;;20.20;69.10;;;;;;5065355;28;1146;-70
2023/05/06 09:45:51;;;;;;;;;;;20.10;69.20;;;;;;5082090;28;1267;-70
2023/05/06 09:48:16;;;;;;;;;;;20.10;69.20;;;;;;5049407;28;1022;-69
2023/05/06 09:50:42;;;;;;;;;;;20.10;69.20;;;;;;5049775;28;1894;-70
2023/05/06 09:53:08;;;;;;;;;;;20.10;69.40;;;;;;5048676;28;990;-69
2023/05/06 09:55:33;;;;;;;;;;;20.10;69.60;;;;;;5049320;28;1196;-69
2023/05/06 09:57:59;;;;;;;;;;;20.10;69.60;;;;;;5049664;28;953;-69
2023/05/06 10:00:27;;;;;;;;;;;20.10;69.60;;;;;;5050054;28;842;-70
2023/05/06 10:02:52;;;;;;;;;;;20.10;69.60;;;;;;5047997;28;867;-70
2023/05/06 10:05:17;;;;;;;;;;;20.10;69.90;;;;;;5045683;28;1283;-70
2023/05/06 10:07:43;;;;;;;;;;;20.10;70.30;;;;;;5048691;28;2031;-70
2023/05/06 10:10:10;;;;;;;;;;;20.20;70.00;;;;;;5082990;28;1953;-69
2023/05/06 10:12:35;;;;;;;;;;;20.20;70.00;;;;;;5053675;28;948;-70
2023/05/06 10:15:03;;;;;;;;;;;20.20;70.00;;;;;;5053477;28;1366;-70
2023/05/06 10:17:28;;;;;;;;;;;20.20;70.00;;;;;;5085722;28;897;-70
2023/05/06 10:19:57;;;;;;;;;;;20.20;70.10;;;;;;5052648;28;846;-70
2023/05/06 10:22:35;;;;;;;;;;;20.20;70.00;;;;;;5053361;28;1348;-70
2023/05/06 10:25:05;;;;;;;;;;;20.20;70.00;;;;;;5054138;28;1263;-71
2023/05/06 10:27:32;;;;;;;;;;;20.20;70.30;;;;;;5049186;28;841;-70
2023/05/06 10:29:58;;;;;;;;;;;20.20;70.30;;;;;;5053481;28;1906;-70
2023/05/06 10:32:23;;;;;;;;;;;20.20;70.40;;;;;;5084877;28;827;-70
2023/05/06 10:34:53;;;;;;;;;;;20.30;70.40;;;;;;5085608;28;1467;-70
2023/05/06 10:37:18;;;;;;;;;;;20.30;70.50;;;;;;5068109;28;1230;-70
2023/05/06 10:39:44;;;;;;;;;;;20.30;70.50;;;;;;5085900;28;946;-70
2023/05/06 10:42:10;;;;;;;;;;;20.30;70.40;;;;;;5052792;28;836;-69
2023/05/06 10:44:54;;;;;;;;;;;20.30;70.30;;;;;;5053083;28;1247;-70
2023/05/06 10:47:21;;;;;;;;;;;20.30;70.10;;;;;;5052215;28;1172;-70
2023/05/06 10:50:06;;;;;;;;;;;20.30;70.00;;;;;;5053227;28;1973;-70
2023/05/06 10:52:44;;;;;;;;;;;20.30;69.80;;;;;;5052135;28;1165;-70
2023/05/06 10:55:28;;;;;;;;;;;20.30;69.70;;;;;;5049346;28;1267;-70
2023/05/06 10:58:13;;;;;;;;;;;20.30;69.50;;;;;;5052975;28;880;-70
2023/05/06 11:00:39;;;;;;;;;;;20.30;69.50;;;;;;5051929;28;1244;-70
2023/05/06 11:03:12;;;;;;;;;;;20.30;69.30;;;;;;5051346;28;2157;-70
2023/05/06 11:05:47;;;;;;;;;;;20.30;69.50;;;;;;5052251;28;1427;-70
2023/05/06 11:08:13;;;;;;;;;;;20.30;69.30;;;;;;5085184;28;1319;-70
2023/05/06 11:10:38;;;;;;;;;;;20.30;69.30;;;;;;5050616;28;2125;-69
2023/05/06 11:13:23;;;;;;;;;;;20.30;69.20;;;;;;5052379;28;1366;-70
2023/05/06 11:15:51;;;;;;;;;;;20.30;69.10;;;;;;5046946;28;1422;-69
2023/05/06 11:18:23;;;;;;;;;;;20.20;69.00;;;;;;5050746;28;910;-69
2023/05/06 11:20:49;;;;;;;;;;;20.20;69.10;;;;;;5051381;28;818;-69
2023/05/06 11:23:15;;;;;;;;;;;20.20;69.10;;;;;;5051151;28;1323;-69
2023/05/06 11:25:41;;;;;;;;;;;20.20;69.10;;;;;;5052418;28;1278;-69
2023/05/06 11:28:07;;;;;;;;;;;20.20;69.20;;;;;;5084924;28;837;-69
2023/05/06 11:30:33;;;;;;;;;;;20.20;69.10;;;;;;5051638;28;1906;-68
2023/05/06 11:32:58;;;;;;;;;;;20.20;69.10;;;;;;5052487;28;788;-69
2023/05/06 11:35:25;;;;;;;;;;;20.20;69.20;;;;;;5051060;28;1282;-68
2023/05/06 11:37:51;;;;;;;;;;;20.20;69.20;;;;;;5052338;28;800;-69
2023/05/06 11:40:16;;;;;;;;;;;20.20;69.20;;;;;;5052869;28;1040;-68
2023/05/06 11:42:41;;;;;;;;;;;20.20;69.20;;;;;;5052247;28;940;-69
2023/05/06 11:45:07;;;;;;;;;;;20.20;69.20;;;;;;5050644;28;1269;-69
2023/05/06 11:47:33;;;;;;;;;;;20.10;69.20;;;;;;5051599;28;934;-69
2023/05/06 11:49:58;;;;;;;;;;;20.10;69.30;;;;;;5051893;28;1898;-69
2023/05/06 11:52:24;;;;;;;;;;;20.10;69.30;;;;;;5051296;28;828;-69
2023/05/06 11:54:50;;;;;;;;;;;20.10;69.40;;;;;;5051618;28;1342;-69
2023/05/06 11:57:15;;;;;;;;;;;20.10;69.40;;;;;;5051798;28;875;-70
2023/05/06 11:59:41;;;;;;;;;;;20.10;69.60;;;;;;5052141;28;1083;-69
2023/05/06 12:02:07;;;;;;;;;;;20.10;69.70;;;;;;5051888;28;835;-68
2023/05/06 12:04:42;;;;;;;;;;;20.10;70.20;;;;;;5050113;28;1272;-68
2023/05/06 12:07:08;;;;;;;;;;;20.10;67.20;;;;;;5051620;28;907;-68
2023/05/06 12:09:34;;;;;;;;;;;20.00;63.40;;;;;;5083964;28;1945;-69
2023/05/06 12:12:01;;;;;;;;;;;19.90;61.70;;;;;;5048938;28;1447;-68
2023/05/06 12:14:27;;;;;;;;;;;19.90;61.00;;;;;;5050706;28;1331;-68
2023/05/06 12:16:52;;;;;;;;;;;19.80;60.40;;;;;;5052270;28;797;-68
2023/05/06 12:19:18;;;;;;;;;;;19.70;59.70;;;;;;5051302;28;1382;-68
2023/05/06 12:21:43;;;;;;;;;;;19.70;59.40;;;;;;5051304;28;799;-69
2023/05/06 12:24:09;;;;;;;;;;;19.60;59.10;;;;;;5080942;28;1455;-67
2023/05/06 12:26:44;;;;;;;;;;;19.60;59.00;;;;;;5051456;28;772;-68
2023/05/06 12:29:10;;;;;;;;;;;19.50;58.70;;;;;;5049502;28;899;-68
2023/05/06 12:31:36;;;;;;;;;;;19.50;58.60;;;;;;5050941;28;1902;-67
2023/05/06 12:34:02;;;;;;;;;;;19.40;58.50;;;;;;5051254;28;1283;-67
2023/05/06 12:36:27;;;;;;;;;;;19.40;58.50;;;;;;5051113;28;1339;-68
2023/05/06 12:38:56;;;;;;;;;;;19.40;58.30;;;;;;5082499;28;916;-69
2023/05/06 12:41:22;;;;;;;;;;;19.30;58.20;;;;;;5049763;28;1558;-68
2023/05/06 12:43:47;;;;;;;;;;;19.30;58.10;;;;;;5050924;28;797;-70
2023/05/06 12:46:13;;;;;;;;;;;19.30;58.40;;;;;;5049525;28;1310;-70
2023/05/06 12:48:40;;;;;;;;;;;19.20;58.50;;;;;;5049610;28;958;-70
2023/05/06 12:51:19;;;;;;;;;;;19.20;59.00;;;;;;5046385;28;1945;-70
2023/05/06 12:53:44;;;;;;;;;;;19.20;59.40;;;;;;5048733;28;978;-70
2023/05/06 12:56:10;;;;;;;;;;;19.20;60.70;;;;;;5050693;28;1270;-70
2023/05/06 12:58:36;;;;;;;;;;;19.20;60.50;;;;;;5050573;28;840;-71
2023/05/06 13:01:02;;;;;;;;;;;19.20;61.10;;;;;;5050878;28;847;-71
2023/05/06 13:03:28;;;;;;;;;;;19.20;61.40;;;;;;5048949;28;918;-71
2023/05/06 13:05:53;;;;;;;;;;;19.20;61.60;;;;;;5082704;28;1280;-70
2023/05/06 13:08:19;;;;;;;;;;;19.20;61.80;;;;;;5050685;28;938;-71
2023/05/06 13:10:44;;;;;;;;;;;19.20;62.00;;;;;;5045450;28;1906;-71
2023/05/06 13:13:12;;;;;;;;;;;19.20;62.20;;;;;;5050384;28;1223;-71
2023/05/06 13:15:38;;;;;;;;;;;19.10;62.30;;;;;;5050388;28;1303;-71
2023/05/06 13:18:03;;;;;;;;;;;19.10;62.50;;;;;;5050546;28;1062;-71
2023/05/06 13:20:29;;;;;;;;;;;19.20;62.70;;;;;;5049526;28;1323;-70
2023/05/06 13:22:54;;;;;;;;;;;19.10;62.80;;;;;;5045223;28;1016;-71
2023/05/06 13:25:20;;;;;;;;;;;19.10;62.90;;;;;;5050440;28;1367;-71
2023/05/06 13:27:46;;;;;;;;;;;19.10;63.10;;;;;;5049409;28;911;-71
2023/05/06 13:30:11;;;;;;;;;;;19.10;63.20;;;;;;5083029;28;1918;-71
2023/05/06 13:32:37;;;;;;;;;;;19.10;63.20;;;;;;5050545;28;764;-71
2023/05/06 13:35:04;;;;;;;;;;;19.00;63.30;;;;;;5050668;28;1360;-70
2023/05/06 13:37:30;;;;;;;;;;;19.00;63.40;;;;;;5050050;28;851;-70
2023/05/06 13:39:55;;;;;;;;;;;19.00;63.50;;;;;;5050269;28;1002;-71
2023/05/06 13:42:21;;;;;;;;;;;19.00;63.60;;;;;;5050061;28;873;-71
2023/05/06 13:44:46;;;;;;;;;;;19.00;63.70;;;;;;5049002;28;1278;-71
2023/05/06 13:47:11;;;;;;;;;;;19.10;63.80;;;;;;5049980;28;953;-71
2023/05/06 13:49:37;;;;;;;;;;;19.10;63.90;;;;;;5050007;28;1944;-70
2023/05/06 13:52:03;;;;;;;;;;;19.00;63.90;;;;;;5050111;28;934;-70
2023/05/06 13:54:28;;;;;;;;;;;19.00;64.00;;;;;;5048342;28;1374;-71
2023/05/06 13:56:53;;;;;;;;;;;19.00;64.00;;;;;;5048300;28;1819;-71
2023/05/06 13:59:19;;;;;;;;;;;19.00;64.00;;;;;;5048023;28;2357;-72
2023/05/06 14:01:44;;;;;;;;;;;19.00;64.10;;;;;;5049621;28;1341;-71
2023/05/06 14:04:11;;;;;;;;;;;19.00;64.10;;;;;;5081042;28;2205;-71
2023/05/06 14:06:37;;;;;;;;;;;19.00;64.20;;;;;;5050524;28;1831;-70
2023/05/06 14:09:03;;;;;;;;;;;19.00;64.20;;;;;;5050735;28;1447;-70
2023/05/06 14:11:29;;;;;;;;;;;19.00;64.20;;;;;;5048215;28;1949;-70
2023/05/06 14:13:55;;;;;;;;;;;19.00;64.30;;;;;;5049482;28;825;-70
2023/05/06 14:16:20;;;;;;;;;;;19.00;64.40;;;;;;5080537;28;1308;-70
2023/05/06 14:18:46;;;;;;;;;;;18.90;64.30;;;;;;5048129;28;1061;-70
2023/05/06 14:21:11;;;;;;;;;;;19.00;64.40;;;;;;5048040;28;839;-69
2023/05/06 14:23:37;;;;;;;;;;;18.90;64.40;;;;;;5049204;28;1254;-69
2023/05/06 14:26:02;;;;;;;;;;;18.90;64.50;;;;;;5048387;28;1257;-70
2023/05/06 14:28:27;;;;;;;;;;;18.90;64.50;;;;;;5049755;28;820;-70
2023/05/06 14:30:53;;;;;;;;;;;18.90;64.50;;;;;;5049761;28;1954;-69